If you wish to contribute or participate in the discussions about articles you are invited to join SKYbrary as a registered user

 Actions

Avignon-Caumont Airport

From SKYbrary Wiki

LFMV
Airport
ICAO: LFMV – IATA: AVN
Summary
Name Avignon-Caumont Airport
Region Europe
Territory France FR.gif
Location , Provence-Alpes-Cote d'Azur
Serving Avignon
Elevation 37.795 m
124 ft
124 ft37.795 m
Type medium airport
Coordinates 43° 54' 26.28" N, 4° 54' 6.59" E
Runways
Designator Length Width Surface ROPS
17/35 1880 m6,167.979 ft
45 m147.638 ft
ASP yes/yes


METAR
Observation LFMV 240230Z AUTO 14003KT 5000 1800 BR NSC 12/11 Q1011 NOSIG
Station CAUMONT
Date/Time 24 October 2019 02:30:00
Wind direction 140°
Wind speed 03 kts
Lowest cloud amount nil significant cloud
Temperature 12°C
Dew point 11°C
Humidity 93%
QNH 1011 hPa
Weather condition n/a